AAL344 KBWI-MPTO
Flight info
| Callsign | AAL344 |
|---|---|
| Flight time | N/A |
| Altitude | 36000 |
| Route | CONLE5 SCOOB DCT EARZZ DCT SKARP Y313 HOAGG DCT ZFP Y319 URSUS UL780 TASNO UM221 COLBY DCT REPIT OSUPA2C |
| Aircraft | A339/H-SADE1E2E3GHIJ1J3J5M1P2RWXY/LB2D1 |
Departure
| Time | 2026-04-29 05:21 |
|---|---|
| Airport | Baltimore/Washington International Thurgood Marshall Airport (KBWI) |
Arrival
| Time | N/A |
|---|---|
| Airport | Tocumen International Airport (MPTO) |
| Time | Latitude | Longitude | Altitude | Speed | Heading |
|---|---|---|---|---|---|
| 2026-04-29 04:58 | 39.18374 | -76.66700 | 162 ft | 0 kts | 143° |
| 2026-04-29 05:09 | 39.18393 | -76.66719 | 163 ft | 4 kts | 129° |
| 2026-04-29 05:10 | 39.18408 | -76.66745 | 165 ft | 5 kts | 104° |
| 2026-04-29 05:10 | 39.18413 | -76.66775 | 166 ft | 4 kts | 73° |
| 2026-04-29 05:10 | 39.18404 | -76.66806 | 165 ft | 4 kts | 55° |
| 2026-04-29 05:10 | 39.18399 | -76.66814 | 165 ft | 2 kts | 54° |
| 2026-04-29 05:13 | 39.18400 | -76.66812 | 166 ft | 2 kts | 54° |
| 2026-04-29 05:14 | 39.18444 | -76.66735 | 169 ft | 14 kts | 54° |
| 2026-04-29 05:14 | 39.18499 | -76.66628 | 167 ft | 9 kts | 63° |
| 2026-04-29 05:14 | 39.18490 | -76.66579 | 166 ft | 8 kts | 110° |
| 2026-04-29 05:14 | 39.18398 | -76.66478 | 164 ft | 20 kts | 146° |
| 2026-04-29 05:15 | 39.18342 | -76.66423 | 163 ft | 0 kts | 133° |
| 2026-04-29 05:15 | 39.18300 | -76.66315 | 162 ft | 24 kts | 117° |
| 2026-04-29 05:15 | 39.18176 | -76.66162 | 161 ft | 25 kts | 144° |
| 2026-04-29 05:15 | 39.18039 | -76.66048 | 160 ft | 16 kts | 150° |
| 2026-04-29 05:16 | 39.17941 | -76.66084 | 159 ft | 18 kts | 211° |
| 2026-04-29 05:16 | 39.17788 | -76.66213 | 161 ft | 31 kts | 213° |
| 2026-04-29 05:16 | 39.17607 | -76.66368 | 159 ft | 31 kts | 213° |
| 2026-04-29 05:16 | 39.17453 | -76.66510 | 159 ft | 19 kts | 238° |
| 2026-04-29 05:17 | 39.17455 | -76.66657 | 163 ft | 15 kts | 275° |
| 2026-04-29 05:17 | 39.17462 | -76.66787 | 163 ft | 15 kts | 275° |
| 2026-04-29 05:17 | 39.17470 | -76.66921 | 163 ft | 16 kts | 274° |
| 2026-04-29 05:17 | 39.17560 | -76.67119 | 164 ft | 32 kts | 322° |
| 2026-04-29 05:18 | 39.17744 | -76.67291 | 161 ft | 32 kts | 324° |
| 2026-04-29 05:18 | 39.17927 | -76.67459 | 159 ft | 31 kts | 324° |
| 2026-04-29 05:18 | 39.18097 | -76.67618 | 161 ft | 29 kts | 324° |
| 2026-04-29 05:18 | 39.18257 | -76.67765 | 161 ft | 28 kts | 324° |
| 2026-04-29 05:19 | 39.18408 | -76.67906 | 162 ft | 26 kts | 323° |
| 2026-04-29 05:19 | 39.18549 | -76.68037 | 161 ft | 18 kts | 322° |
| 2026-04-29 05:19 | 39.18568 | -76.68080 | 161 ft | 5 kts | 289° |
| 2026-04-29 05:19 | 39.18539 | -76.68162 | 160 ft | 11 kts | 226° |
| 2026-04-29 05:20 | 39.18483 | -76.68152 | 160 ft | 8 kts | 146° |
| 2026-04-29 05:20 | 39.18396 | -76.68070 | 161 ft | 39 kts | 143° |
| 2026-04-29 05:20 | 39.17959 | -76.67664 | 163 ft | 114 kts | 144° |
| 2026-04-29 05:20 | 39.17142 | -76.66906 | 165 ft | 172 kts | 144° |
| 2026-04-29 05:21 | 39.16110 | -76.65964 | 645 ft | 182 kts | 146° |
| 2026-04-29 05:21 | 39.15090 | -76.65027 | 1467 ft | 179 kts | 145° |
| 2026-04-29 05:21 | 39.14049 | -76.64068 | 2008 ft | 194 kts | 145° |
| 2026-04-29 05:21 | 39.12899 | -76.63025 | 2418 ft | 210 kts | 146° |
| 2026-04-29 05:22 | 39.11675 | -76.61892 | 2794 ft | 227 kts | 144° |
| 2026-04-29 05:22 | 39.10375 | -76.60593 | 3154 ft | 245 kts | 140° |
| 2026-04-29 05:22 | 39.09101 | -76.59006 | 3429 ft | 263 kts | 135° |
| 2026-04-29 05:22 | 39.07841 | -76.57312 | 4130 ft | 260 kts | 133° |
| 2026-04-29 05:23 | 39.06610 | -76.55579 | 4609 ft | 268 kts | 133° |
| 2026-04-29 05:23 | 39.05344 | -76.53778 | 5204 ft | 271 kts | 133° |
| 2026-04-29 05:23 | 39.04055 | -76.51986 | 5821 ft | 273 kts | 134° |
| 2026-04-29 05:23 | 39.02741 | -76.50199 | 6415 ft | 276 kts | 134° |
| 2026-04-29 05:24 | 39.01464 | -76.48486 | 6987 ft | 278 kts | 134° |
| 2026-04-29 05:24 | 39.00003 | -76.46772 | 7557 ft | 281 kts | 149° |
| 2026-04-29 05:24 | 38.98178 | -76.45921 | 8160 ft | 281 kts | 174° |
| 2026-04-29 05:24 | 38.96237 | -76.46139 | 8754 ft | 283 kts | 195° |
| 2026-04-29 05:25 | 38.94357 | -76.46909 | 9307 ft | 286 kts | 199° |
| 2026-04-29 05:25 | 38.92471 | -76.47747 | 9887 ft | 288 kts | 199° |
| 2026-04-29 05:25 | 38.90538 | -76.48565 | 10232 ft | 301 kts | 198° |
| 2026-04-29 05:25 | 38.88480 | -76.49378 | 10403 ft | 318 kts | 197° |
| 2026-04-29 05:26 | 38.86295 | -76.50202 | 10585 ft | 334 kts | 197° |
| 2026-04-29 05:26 | 38.84049 | -76.51074 | 11030 ft | 340 kts | 200° |
| 2026-04-29 05:26 | 38.81840 | -76.52165 | 11564 ft | 342 kts | 201° |
| 2026-04-29 05:26 | 38.79605 | -76.53273 | 12101 ft | 345 kts | 201° |
| 2026-04-29 05:27 | 38.77389 | -76.54365 | 12621 ft | 347 kts | 201° |
| 2026-04-29 05:27 | 38.72838 | -76.56598 | 13650 ft | 353 kts | 201° |
| 2026-04-29 05:27 | 38.70537 | -76.57726 | 14152 ft | 356 kts | 201° |
| 2026-04-29 05:28 | 38.68214 | -76.58862 | 14646 ft | 358 kts | 201° |
| 2026-04-29 05:28 | 38.65874 | -76.59960 | 15127 ft | 361 kts | 200° |
| 2026-04-29 05:28 | 38.63499 | -76.61046 | 15612 ft | 364 kts | 200° |
| 2026-04-29 05:28 | 38.61105 | -76.62138 | 16084 ft | 366 kts | 200° |
| 2026-04-29 05:29 | 38.58696 | -76.63241 | 16546 ft | 369 kts | 200° |
| 2026-04-29 05:29 | 38.56273 | -76.64355 | 17002 ft | 371 kts | 200° |
| 2026-04-29 05:29 | 38.53833 | -76.65479 | 17450 ft | 374 kts | 200° |
| 2026-04-29 05:29 | 38.51379 | -76.66610 | 17891 ft | 376 kts | 200° |
| 2026-04-29 05:30 | 38.48908 | -76.67748 | 18325 ft | 379 kts | 200° |
| 2026-04-29 05:30 | 38.46418 | -76.68894 | 18765 ft | 381 kts | 200° |
| 2026-04-29 05:30 | 38.43913 | -76.70040 | 19195 ft | 384 kts | 199° |
| 2026-04-29 05:30 | 38.41307 | -76.70838 | 19598 ft | 387 kts | 188° |
| 2026-04-29 05:31 | 38.38616 | -76.71015 | 20034 ft | 389 kts | 178° |
| 2026-04-29 05:31 | 38.35915 | -76.70628 | 20436 ft | 392 kts | 172° |
| 2026-04-29 05:31 | 38.33200 | -76.70151 | 20851 ft | 395 kts | 173° |
| 2026-04-29 05:31 | 38.30474 | -76.69697 | 21268 ft | 397 kts | 173° |
| 2026-04-29 05:32 | 38.27753 | -76.69257 | 21674 ft | 400 kts | 173° |
| 2026-04-29 05:32 | 38.24982 | -76.68812 | 22082 ft | 402 kts | 173° |
| 2026-04-29 05:32 | 38.22195 | -76.68365 | 22478 ft | 405 kts | 173° |
| 2026-04-29 05:32 | 38.19391 | -76.67915 | 22879 ft | 407 kts | 173° |
| 2026-04-29 05:33 | 38.16571 | -76.67462 | 23267 ft | 410 kts | 173° |
| 2026-04-29 05:33 | 38.13735 | -76.67007 | 23673 ft | 412 kts | 173° |
| 2026-04-29 05:33 | 38.10879 | -76.66548 | 24059 ft | 415 kts | 173° |
| 2026-04-29 05:33 | 38.08000 | -76.66247 | 24426 ft | 417 kts | 177° |
| 2026-04-29 05:34 | 38.05089 | -76.66069 | 24805 ft | 419 kts | 177° |
| 2026-04-29 05:34 | 38.02168 | -76.65881 | 25175 ft | 422 kts | 177° |
| 2026-04-29 05:34 | 37.99224 | -76.65687 | 25552 ft | 424 kts | 177° |
| 2026-04-29 05:34 | 37.96270 | -76.65490 | 25897 ft | 427 kts | 177° |
| 2026-04-29 05:35 | 37.94303 | -76.65358 | 26136 ft | 428 kts | 177° |
| 2026-04-29 05:35 | 37.90341 | -76.65093 | 26607 ft | 431 kts | 177° |
| 2026-04-29 05:35 | 37.87333 | -76.64892 | 26933 ft | 434 kts | 177° |
| 2026-04-29 05:35 | 37.84311 | -76.64690 | 27272 ft | 436 kts | 177° |
| 2026-04-29 05:36 | 37.81273 | -76.64487 | 27597 ft | 438 kts | 177° |
| 2026-04-29 05:36 | 37.79247 | -76.64353 | 27807 ft | 440 kts | 177° |
| 2026-04-29 05:36 | 37.76189 | -76.64149 | 28119 ft | 442 kts | 177° |
| 2026-04-29 05:36 | 37.73111 | -76.63945 | 28419 ft | 444 kts | 177° |
| 2026-04-29 05:37 | 37.70018 | -76.63740 | 28725 ft | 446 kts | 177° |
| 2026-04-29 05:37 | 37.66904 | -76.63533 | 29018 ft | 448 kts | 177° |
| 2026-04-29 05:37 | 37.63786 | -76.63327 | 29302 ft | 450 kts | 177° |
| 2026-04-29 05:37 | 37.60645 | -76.63127 | 29574 ft | 452 kts | 178° |
| 2026-04-29 05:38 | 37.57490 | -76.63225 | 29850 ft | 454 kts | 185° |
| 2026-04-29 05:38 | 37.54347 | -76.63668 | 30125 ft | 456 kts | 187° |
| 2026-04-29 05:38 | 37.51197 | -76.64121 | 30408 ft | 458 kts | 186° |
| 2026-04-29 05:38 | 37.48026 | -76.64564 | 30693 ft | 460 kts | 186° |
| 2026-04-29 05:39 | 37.44831 | -76.65003 | 30977 ft | 462 kts | 186° |
| 2026-04-29 05:39 | 37.41621 | -76.65442 | 31257 ft | 464 kts | 186° |
| 2026-04-29 05:39 | 37.38410 | -76.65879 | 31530 ft | 466 kts | 186° |
| 2026-04-29 05:39 | 37.35220 | -76.66314 | 31797 ft | 468 kts | 186° |
| 2026-04-29 05:40 | 37.31976 | -76.66756 | 32055 ft | 470 kts | 186° |
| 2026-04-29 05:40 | 37.28717 | -76.67200 | 32309 ft | 472 kts | 186° |
| 2026-04-29 05:40 | 37.25451 | -76.67644 | 32538 ft | 473 kts | 186° |
| 2026-04-29 05:40 | 37.22166 | -76.68091 | 32745 ft | 475 kts | 186° |
| 2026-04-29 05:41 | 37.18874 | -76.68538 | 32935 ft | 476 kts | 186° |
| 2026-04-29 05:41 | 37.15581 | -76.68985 | 33106 ft | 478 kts | 186° |
| 2026-04-29 05:41 | 37.12269 | -76.69435 | 33261 ft | 479 kts | 186° |
| 2026-04-29 05:41 | 37.08946 | -76.69885 | 33398 ft | 480 kts | 186° |
| 2026-04-29 05:42 | 37.05626 | -76.70334 | 33554 ft | 480 kts | 186° |
| 2026-04-29 05:42 | 37.02299 | -76.70784 | 33723 ft | 480 kts | 186° |
| 2026-04-29 05:42 | 36.98978 | -76.71233 | 33911 ft | 480 kts | 186° |
| 2026-04-29 05:42 | 36.95658 | -76.71681 | 34082 ft | 479 kts | 186° |
| 2026-04-29 05:43 | 36.92380 | -76.72124 | 34258 ft | 479 kts | 186° |
| 2026-04-29 05:43 | 36.89067 | -76.72570 | 34428 ft | 479 kts | 186° |
| 2026-04-29 05:43 | 36.85758 | -76.73016 | 34602 ft | 478 kts | 186° |
| 2026-04-29 05:43 | 36.82447 | -76.73461 | 34767 ft | 478 kts | 186° |
| 2026-04-29 05:44 | 36.79144 | -76.73905 | 34932 ft | 478 kts | 186° |
| 2026-04-29 05:44 | 36.75833 | -76.74350 | 35097 ft | 477 kts | 186° |
| 2026-04-29 05:44 | 36.72526 | -76.74794 | 35271 ft | 477 kts | 186° |
| 2026-04-29 05:44 | 36.69225 | -76.75237 | 35413 ft | 477 kts | 186° |
| 2026-04-29 05:45 | 36.65929 | -76.75678 | 35568 ft | 476 kts | 186° |
| 2026-04-29 05:45 | 36.62628 | -76.76120 | 35721 ft | 476 kts | 186° |
| 2026-04-29 05:45 | 36.59338 | -76.76560 | 35861 ft | 476 kts | 186° |
| 2026-04-29 05:45 | 36.56042 | -76.77001 | 35992 ft | 476 kts | 186° |
| 2026-04-29 05:46 | 36.49508 | -76.77873 | 36010 ft | 474 kts | 186° |
| 2026-04-29 05:46 | 36.42945 | -76.78747 | 36009 ft | 474 kts | 186° |
| 2026-04-29 05:47 | 36.36366 | -76.79622 | 36008 ft | 474 kts | 186° |
| 2026-04-29 05:47 | 36.29790 | -76.80445 | 36010 ft | 474 kts | 185° |
| 2026-04-29 05:48 | 36.23744 | -76.81221 | 36011 ft | 475 kts | 186° |
| 2026-04-29 05:48 | 36.17178 | -76.82093 | 36012 ft | 475 kts | 186° |
| 2026-04-29 05:49 | 36.10606 | -76.82971 | 36012 ft | 475 kts | 186° |
| 2026-04-29 05:49 | 36.04031 | -76.83846 | 36013 ft | 475 kts | 186° |
| 2026-04-29 05:50 | 35.97455 | -76.84719 | 36013 ft | 475 kts | 186° |
| 2026-04-29 05:50 | 35.90942 | -76.85802 | 36011 ft | 474 kts | 192° |
| 2026-04-29 05:51 | 35.84618 | -76.88104 | 36015 ft | 474 kts | 198° |
| 2026-04-29 05:51 | 35.78344 | -76.90619 | 36012 ft | 474 kts | 198° |
| 2026-04-29 05:52 | 35.72052 | -76.93107 | 36013 ft | 475 kts | 198° |
| 2026-04-29 05:52 | 35.65754 | -76.95591 | 36013 ft | 475 kts | 198° |
| 2026-04-29 05:53 | 35.59457 | -76.98071 | 36013 ft | 475 kts | 198° |
| 2026-04-29 05:53 | 35.53160 | -77.00547 | 36013 ft | 475 kts | 198° |
| 2026-04-29 05:54 | 35.46911 | -77.02999 | 36013 ft | 475 kts | 198° |
| 2026-04-29 05:54 | 35.40607 | -77.05469 | 36013 ft | 475 kts | 198° |
| 2026-04-29 05:55 | 35.34307 | -77.07933 | 36012 ft | 474 kts | 198° |
| 2026-04-29 05:55 | 35.28049 | -77.10376 | 36012 ft | 474 kts | 198° |
| 2026-04-29 05:56 | 35.21754 | -77.12830 | 36012 ft | 474 kts | 198° |
| 2026-04-29 05:56 | 35.15458 | -77.15280 | 36012 ft | 474 kts | 198° |
| 2026-04-29 05:57 | 35.09164 | -77.17724 | 36011 ft | 474 kts | 198° |
| 2026-04-29 05:57 | 35.02863 | -77.20168 | 36011 ft | 474 kts | 198° |
| 2026-04-29 05:58 | 34.96611 | -77.22588 | 36011 ft | 474 kts | 198° |
| 2026-04-29 05:58 | 34.90318 | -77.25020 | 36011 ft | 474 kts | 198° |
| 2026-04-29 05:59 | 34.84021 | -77.27451 | 36009 ft | 475 kts | 198° |
| 2026-04-29 05:59 | 34.77780 | -77.29856 | 36011 ft | 480 kts | 198° |
| 2026-04-29 06:00 | 34.71380 | -77.32317 | 36009 ft | 483 kts | 198° |
| 2026-04-29 06:00 | 34.64955 | -77.34784 | 36009 ft | 485 kts | 198° |
| 2026-04-29 06:01 | 34.58553 | -77.37238 | 36012 ft | 486 kts | 198° |
| 2026-04-29 06:01 | 34.52095 | -77.39710 | 36008 ft | 486 kts | 198° |
| 2026-04-29 06:02 | 34.45551 | -77.41687 | 36010 ft | 485 kts | 189° |
| 2026-04-29 06:02 | 34.38862 | -77.42956 | 36010 ft | 486 kts | 189° |
| 2026-04-29 06:03 | 34.32223 | -77.44249 | 36011 ft | 486 kts | 189° |
| 2026-04-29 06:03 | 34.25547 | -77.45555 | 36011 ft | 486 kts | 189° |
| 2026-04-29 06:04 | 34.18871 | -77.46857 | 36010 ft | 486 kts | 189° |
| 2026-04-29 06:04 | 34.12200 | -77.48156 | 36010 ft | 486 kts | 189° |
| 2026-04-29 06:05 | 34.05519 | -77.49455 | 36010 ft | 486 kts | 189° |
| 2026-04-29 06:05 | 33.98846 | -77.50750 | 36009 ft | 486 kts | 189° |
| 2026-04-29 06:06 | 33.92202 | -77.52038 | 36011 ft | 486 kts | 189° |
| 2026-04-29 06:06 | 33.85523 | -77.53330 | 36010 ft | 486 kts | 189° |
| 2026-04-29 06:07 | 33.78844 | -77.54620 | 36009 ft | 486 kts | 189° |
| 2026-04-29 06:07 | 33.72165 | -77.55909 | 36012 ft | 486 kts | 189° |
| 2026-04-29 06:08 | 33.65493 | -77.57194 | 36008 ft | 486 kts | 189° |
| 2026-04-29 06:08 | 33.58805 | -77.58503 | 36009 ft | 486 kts | 191° |
| 2026-04-29 06:09 | 33.52282 | -77.60628 | 36007 ft | 485 kts | 197° |
| 2026-04-29 06:09 | 33.45844 | -77.62905 | 36008 ft | 485 kts | 196° |
| 2026-04-29 06:10 | 33.39358 | -77.65174 | 36008 ft | 485 kts | 196° |
| 2026-04-29 06:10 | 33.32864 | -77.67440 | 36010 ft | 486 kts | 196° |
| 2026-04-29 06:11 | 33.26374 | -77.69702 | 36011 ft | 486 kts | 196° |
| 2026-04-29 06:11 | 33.19915 | -77.71950 | 36011 ft | 486 kts | 196° |
| 2026-04-29 06:12 | 33.13412 | -77.74210 | 36013 ft | 486 kts | 196° |
| 2026-04-29 06:12 | 33.06916 | -77.76463 | 36010 ft | 486 kts | 196° |
| 2026-04-29 06:13 | 33.00417 | -77.78715 | 36009 ft | 486 kts | 196° |
| 2026-04-29 06:13 | 32.93931 | -77.80958 | 36011 ft | 486 kts | 196° |
| 2026-04-29 06:14 | 32.87474 | -77.83188 | 36010 ft | 486 kts | 196° |
| 2026-04-29 06:14 | 32.80977 | -77.85428 | 36010 ft | 486 kts | 196° |
| 2026-04-29 06:15 | 32.74479 | -77.87666 | 36010 ft | 486 kts | 196° |
| 2026-04-29 06:15 | 32.67984 | -77.89898 | 36013 ft | 486 kts | 196° |
| 2026-04-29 06:16 | 32.61466 | -77.92067 | 36013 ft | 486 kts | 195° |
| 2026-04-29 06:16 | 32.54943 | -77.94160 | 36008 ft | 486 kts | 195° |
| 2026-04-29 06:17 | 32.48463 | -77.96251 | 36009 ft | 486 kts | 195° |
| 2026-04-29 06:17 | 32.41929 | -77.98364 | 36009 ft | 486 kts | 195° |
| 2026-04-29 06:18 | 32.35398 | -78.00474 | 36008 ft | 486 kts | 195° |
| 2026-04-29 06:18 | 32.28875 | -78.02579 | 36009 ft | 486 kts | 195° |
| 2026-04-29 06:19 | 32.22391 | -78.04667 | 36010 ft | 486 kts | 195° |
| 2026-04-29 06:19 | 32.15865 | -78.06766 | 36008 ft | 486 kts | 195° |
| 2026-04-29 06:20 | 32.09343 | -78.08861 | 36008 ft | 486 kts | 195° |
| 2026-04-29 06:20 | 32.02816 | -78.10954 | 36010 ft | 486 kts | 195° |
| 2026-04-29 06:21 | 31.96288 | -78.13044 | 36009 ft | 486 kts | 195° |
| 2026-04-29 06:21 | 31.89803 | -78.15118 | 36008 ft | 486 kts | 195° |
| 2026-04-29 06:22 | 31.84375 | -78.16851 | 36010 ft | 486 kts | 195° |
| 2026-04-29 06:22 | 31.76748 | -78.19283 | 36010 ft | 486 kts | 195° |
| 2026-04-29 06:23 | 31.70223 | -78.21360 | 36011 ft | 486 kts | 195° |
| 2026-04-29 06:23 | 31.64800 | -78.23084 | 36011 ft | 486 kts | 195° |
| 2026-04-29 06:24 | 31.58272 | -78.25157 | 36010 ft | 486 kts | 195° |
| 2026-04-29 06:24 | 31.51748 | -78.27225 | 36010 ft | 486 kts | 195° |
| 2026-04-29 06:25 | 31.45215 | -78.29300 | 36008 ft | 486 kts | 195° |
| 2026-04-29 06:25 | 31.38755 | -78.31468 | 36008 ft | 486 kts | 196° |
| 2026-04-29 06:26 | 31.32266 | -78.33661 | 36011 ft | 486 kts | 196° |
| 2026-04-29 06:26 | 31.25760 | -78.35841 | 36010 ft | 486 kts | 196° |
| 2026-04-29 06:27 | 31.19265 | -78.38009 | 36010 ft | 486 kts | 196° |
| 2026-04-29 06:27 | 31.12763 | -78.40176 | 36011 ft | 486 kts | 196° |
| 2026-04-29 06:28 | 31.06263 | -78.42339 | 36008 ft | 486 kts | 196° |
| 2026-04-29 06:28 | 30.99758 | -78.44501 | 36011 ft | 486 kts | 196° |
| 2026-04-29 06:29 | 30.93254 | -78.46660 | 36010 ft | 486 kts | 196° |
| 2026-04-29 06:29 | 30.86792 | -78.48801 | 36010 ft | 486 kts | 196° |
| 2026-04-29 06:30 | 30.77036 | -78.52029 | 36010 ft | 486 kts | 196° |
| 2026-04-29 06:31 | 30.70539 | -78.54175 | 36011 ft | 486 kts | 196° |
| 2026-04-29 06:31 | 30.64023 | -78.56323 | 36011 ft | 486 kts | 196° |
| 2026-04-29 06:32 | 30.57566 | -78.58450 | 36008 ft | 486 kts | 196° |
| 2026-04-29 06:32 | 30.51061 | -78.60589 | 36010 ft | 486 kts | 196° |
| 2026-04-29 06:33 | 30.44546 | -78.62728 | 36008 ft | 486 kts | 196° |
| 2026-04-29 06:33 | 30.38032 | -78.64864 | 36014 ft | 486 kts | 196° |
| 2026-04-29 06:34 | 30.31563 | -78.66983 | 36010 ft | 486 kts | 196° |
| 2026-04-29 06:34 | 30.25056 | -78.69111 | 36008 ft | 486 kts | 196° |
| 2026-04-29 06:35 | 30.18551 | -78.71236 | 36012 ft | 486 kts | 196° |
| 2026-04-29 06:35 | 30.12040 | -78.73359 | 36008 ft | 486 kts | 196° |
| 2026-04-29 06:36 | 30.05535 | -78.75477 | 36008 ft | 486 kts | 196° |
| 2026-04-29 06:36 | 29.99033 | -78.77591 | 36010 ft | 486 kts | 196° |
| 2026-04-29 06:37 | 29.92569 | -78.79691 | 36010 ft | 486 kts | 196° |
| 2026-04-29 06:37 | 29.86064 | -78.81801 | 36010 ft | 486 kts | 196° |
| 2026-04-29 06:38 | 29.79501 | -78.83613 | 36007 ft | 486 kts | 188° |
| 2026-04-29 06:38 | 29.72763 | -78.84058 | 36005 ft | 486 kts | 178° |
| 2026-04-29 06:39 | 29.66008 | -78.83696 | 36008 ft | 486 kts | 178° |
| 2026-04-29 06:39 | 29.59262 | -78.83380 | 36007 ft | 486 kts | 178° |
| 2026-04-29 06:40 | 29.52501 | -78.83071 | 36009 ft | 486 kts | 178° |
| 2026-04-29 06:40 | 29.45741 | -78.82760 | 36009 ft | 486 kts | 178° |
| 2026-04-29 06:41 | 29.38978 | -78.82450 | 36011 ft | 486 kts | 178° |
| 2026-04-29 06:41 | 29.32217 | -78.82140 | 36010 ft | 486 kts | 178° |
| 2026-04-29 06:42 | 29.25455 | -78.81830 | 36011 ft | 486 kts | 178° |
| 2026-04-29 06:42 | 29.18698 | -78.81521 | 36011 ft | 486 kts | 178° |
| 2026-04-29 06:43 | 29.11939 | -78.81212 | 36010 ft | 486 kts | 178° |
| 2026-04-29 06:43 | 29.05179 | -78.80903 | 36011 ft | 486 kts | 178° |
| 2026-04-29 06:44 | 28.98463 | -78.80597 | 36009 ft | 486 kts | 178° |
| 2026-04-29 06:44 | 28.91703 | -78.80290 | 36010 ft | 486 kts | 178° |
| 2026-04-29 06:45 | 28.84941 | -78.79982 | 36009 ft | 486 kts | 178° |
| 2026-04-29 06:45 | 28.78183 | -78.79675 | 36011 ft | 486 kts | 178° |
| 2026-04-29 06:46 | 28.71427 | -78.79369 | 36011 ft | 486 kts | 178° |
| 2026-04-29 06:46 | 28.64664 | -78.79063 | 36010 ft | 486 kts | 178° |
| 2026-04-29 06:47 | 28.57906 | -78.78757 | 36011 ft | 486 kts | 178° |
| 2026-04-29 06:47 | 28.51149 | -78.78453 | 36010 ft | 486 kts | 178° |
| 2026-04-29 06:48 | 28.44387 | -78.78148 | 36012 ft | 486 kts | 178° |
| 2026-04-29 06:48 | 28.37628 | -78.77844 | 36010 ft | 486 kts | 178° |
| 2026-04-29 06:49 | 28.30864 | -78.77541 | 36009 ft | 486 kts | 178° |
| 2026-04-29 06:49 | 28.24108 | -78.77237 | 36010 ft | 486 kts | 178° |
| 2026-04-29 06:50 | 28.17350 | -78.76934 | 36010 ft | 486 kts | 178° |
| 2026-04-29 06:50 | 28.10632 | -78.76634 | 36010 ft | 486 kts | 178° |
| 2026-04-29 06:51 | 28.03874 | -78.76331 | 36011 ft | 486 kts | 178° |
| 2026-04-29 06:51 | 27.97113 | -78.76029 | 36009 ft | 486 kts | 178° |
| 2026-04-29 06:52 | 27.90356 | -78.75728 | 36010 ft | 486 kts | 178° |
| 2026-04-29 06:52 | 27.83598 | -78.75427 | 36011 ft | 486 kts | 178° |
| 2026-04-29 06:53 | 27.76837 | -78.75126 | 36010 ft | 486 kts | 178° |
| 2026-04-29 06:53 | 27.70079 | -78.74825 | 36009 ft | 486 kts | 178° |
| 2026-04-29 06:54 | 27.63317 | -78.74525 | 36010 ft | 486 kts | 178° |
| 2026-04-29 06:54 | 27.56562 | -78.74225 | 36009 ft | 486 kts | 178° |
| 2026-04-29 06:55 | 27.49798 | -78.73925 | 36009 ft | 486 kts | 178° |
| 2026-04-29 06:55 | 27.43040 | -78.73626 | 36012 ft | 486 kts | 178° |
| 2026-04-29 06:56 | 27.36277 | -78.73327 | 36011 ft | 486 kts | 178° |
| 2026-04-29 06:56 | 27.29566 | -78.73031 | 36010 ft | 486 kts | 178° |
| 2026-04-29 06:57 | 27.22807 | -78.72733 | 36010 ft | 486 kts | 178° |
| 2026-04-29 06:57 | 27.16050 | -78.72435 | 36009 ft | 486 kts | 178° |
| 2026-04-29 06:58 | 27.09287 | -78.72138 | 36010 ft | 486 kts | 178° |
| 2026-04-29 06:58 | 27.02531 | -78.71841 | 36010 ft | 486 kts | 178° |
| 2026-04-29 06:59 | 26.95772 | -78.71544 | 36011 ft | 486 kts | 178° |
| 2026-04-29 06:59 | 26.89014 | -78.71248 | 36010 ft | 486 kts | 178° |
| 2026-04-29 07:00 | 26.82252 | -78.70952 | 36009 ft | 486 kts | 178° |
| 2026-04-29 07:00 | 26.75746 | -78.70668 | 36009 ft | 486 kts | 178° |
| 2026-04-29 07:01 | 26.68988 | -78.70372 | 36009 ft | 486 kts | 178° |
| 2026-04-29 07:01 | 26.62225 | -78.70077 | 36011 ft | 486 kts | 178° |
| 2026-04-29 07:02 | 26.55471 | -78.69912 | 36008 ft | 486 kts | 183° |
| 2026-04-29 07:02 | 26.48762 | -78.70777 | 36007 ft | 485 kts | 188° |
| 2026-04-29 07:03 | 26.42066 | -78.71790 | 36006 ft | 486 kts | 188° |
| 2026-04-29 07:03 | 26.35368 | -78.72783 | 36007 ft | 486 kts | 188° |
| 2026-04-29 07:04 | 26.28670 | -78.73774 | 36010 ft | 486 kts | 188° |
| 2026-04-29 07:04 | 26.21963 | -78.74766 | 36011 ft | 486 kts | 188° |
| 2026-04-29 07:05 | 26.15268 | -78.75756 | 36010 ft | 486 kts | 188° |
| 2026-04-29 07:05 | 26.08608 | -78.76739 | 36010 ft | 486 kts | 188° |
| 2026-04-29 07:06 | 26.01907 | -78.77727 | 36009 ft | 486 kts | 188° |
| 2026-04-29 07:06 | 25.95203 | -78.78714 | 36010 ft | 486 kts | 188° |
| 2026-04-29 07:07 | 25.88503 | -78.79700 | 36011 ft | 486 kts | 188° |
| 2026-04-29 07:07 | 25.81797 | -78.80685 | 36008 ft | 486 kts | 188° |
| 2026-04-29 07:08 | 25.75097 | -78.81668 | 36009 ft | 486 kts | 188° |
| 2026-04-29 07:08 | 25.68396 | -78.82651 | 36010 ft | 486 kts | 188° |
| 2026-04-29 07:09 | 25.61691 | -78.83632 | 36011 ft | 486 kts | 188° |
| 2026-04-29 07:09 | 25.54991 | -78.84612 | 36105 ft | 484 kts | 188° |
| 2026-04-29 07:09 | 25.51678 | -78.85096 | 36485 ft | 477 kts | 188° |
| 2026-04-29 07:10 | 25.48376 | -78.85579 | 36536 ft | 479 kts | 188° |
| 2026-04-29 07:10 | 25.41751 | -78.86546 | 36605 ft | 481 kts | 188° |
| 2026-04-29 07:11 | 25.35101 | -78.87515 | 36665 ft | 483 kts | 188° |
| 2026-04-29 07:11 | 25.29562 | -78.88322 | 36717 ft | 484 kts | 187° |
| 2026-04-29 07:12 | 25.22888 | -78.89293 | 36777 ft | 484 kts | 187° |
| 2026-04-29 07:12 | 25.16207 | -78.90264 | 36838 ft | 484 kts | 187° |
| 2026-04-29 07:13 | 25.09522 | -78.91234 | 36889 ft | 485 kts | 187° |
| 2026-04-29 07:13 | 25.02832 | -78.92204 | 36955 ft | 485 kts | 187° |
| 2026-04-29 07:14 | 24.96147 | -78.93172 | 37014 ft | 485 kts | 187° |
| 2026-04-29 07:14 | 24.89458 | -78.94140 | 37073 ft | 485 kts | 187° |
| 2026-04-29 07:15 | 24.82770 | -78.95106 | 37134 ft | 485 kts | 187° |
| 2026-04-29 07:15 | 24.76080 | -78.96071 | 37193 ft | 485 kts | 187° |
| 2026-04-29 07:16 | 24.69392 | -78.97035 | 37252 ft | 485 kts | 187° |
| 2026-04-29 07:16 | 24.62707 | -78.97998 | 37312 ft | 485 kts | 187° |
| 2026-04-29 07:17 | 24.56021 | -78.98960 | 37380 ft | 485 kts | 187° |
| 2026-04-29 07:17 | 24.49332 | -78.99921 | 37429 ft | 485 kts | 187° |
| 2026-04-29 07:18 | 24.42693 | -79.00874 | 37489 ft | 484 kts | 187° |
| 2026-04-29 07:18 | 24.35965 | -79.01839 | 37551 ft | 484 kts | 187° |
| 2026-04-29 07:19 | 24.29325 | -79.02791 | 37602 ft | 484 kts | 187° |
| 2026-04-29 07:19 | 24.22640 | -79.03747 | 37668 ft | 484 kts | 187° |